createdAt,value
2023-08-12T00:01:33.642Z,3.50
2023-08-12T00:03:35.620Z,2.80
2023-08-12T00:05:38.155Z,3.50
2023-08-12T00:07:43.738Z,2.90
2023-08-12T00:09:45.448Z,3.00
2023-08-12T00:11:47.856Z,2.60
2023-08-12T00:13:49.648Z,2.83
2023-08-12T00:15:51.615Z,3.03
2023-08-12T00:17:53.922Z,3.20
2023-08-12T00:19:55.782Z,3.07
2023-08-12T00:21:57.497Z,3.50
2023-08-12T00:23:59.210Z,2.33
2023-08-12T00:26:00.974Z,3.20
2023-08-12T00:28:02.790Z,3.17
2023-08-12T00:30:05.549Z,2.70
2023-08-12T00:32:09.306Z,2.70
2023-08-12T00:34:11.017Z,3.37
2023-08-12T00:36:12.748Z,2.77
2023-08-12T00:38:14.594Z,3.10
2023-08-12T00:40:16.368Z,3.60
2023-08-12T00:42:18.193Z,3.50
2023-08-12T00:44:20.234Z,3.20
2023-08-12T00:46:22.162Z,4.07
2023-08-12T00:48:24.400Z,3.10
2023-08-12T00:50:26.826Z,2.73
2023-08-12T00:52:28.900Z,3.10
2023-08-12T00:54:30.816Z,3.33
2023-08-12T00:56:33.139Z,2.50
2023-08-12T00:58:35.043Z,3.03
2023-08-12T01:00:36.859Z,2.57
2023-08-12T01:02:39.222Z,3.30
2023-08-12T01:04:41.353Z,3.07
2023-08-12T01:06:43.099Z,3.10
2023-08-12T01:08:45.676Z,2.97
2023-08-12T01:10:57.029Z,3.67
2023-08-12T01:13:07.678Z,3.40
2023-08-12T01:15:15.742Z,2.93
2023-08-12T01:17:17.755Z,2.70
2023-08-12T01:19:35.402Z,2.83
2023-08-12T01:21:42.055Z,3.30
2023-08-12T01:23:44.899Z,3.20
2023-08-12T01:25:46.596Z,3.30
2023-08-12T01:27:48.235Z,3.43
2023-08-12T01:29:52.715Z,2.90
2023-08-12T01:32:14.874Z,3.77
2023-08-12T01:34:38.739Z,3.40
2023-08-12T01:36:43.268Z,3.20
2023-08-12T01:38:45.600Z,3.20
2023-08-12T01:40:48.821Z,3.23
2023-08-12T01:42:51.807Z,3.70
2023-08-12T01:44:56.530Z,3.67
2023-08-12T01:46:58.372Z,3.43
2023-08-12T01:49:00.059Z,4.03
2023-08-12T01:51:01.982Z,4.63
2023-08-12T01:53:03.864Z,4.00
2023-08-12T01:55:05.885Z,3.30
2023-08-12T01:57:09.541Z,4.17
2023-08-12T01:59:11.666Z,3.67
2023-08-12T02:01:13.440Z,3.80
2023-08-12T02:03:15.232Z,3.70
2023-08-12T02:05:17.007Z,3.50
2023-08-12T02:07:18.817Z,3.30
2023-08-12T02:09:20.535Z,4.30
2023-08-12T02:11:22.492Z,4.00
2023-08-12T02:13:24.209Z,3.70
2023-08-12T02:15:26.048Z,3.83
2023-08-12T02:17:27.873Z,4.00
2023-08-12T02:19:29.644Z,3.83
2023-08-12T02:21:31.386Z,3.90
2023-08-12T02:23:33.131Z,4.43
2023-08-12T02:25:34.879Z,3.60
2023-08-12T02:27:36.645Z,3.43
2023-08-12T02:29:38.375Z,3.67
2023-08-12T02:31:40.126Z,4.53
2023-08-12T02:33:41.849Z,3.40
2023-08-12T02:35:43.845Z,3.80
2023-08-12T02:37:45.554Z,3.70
2023-08-12T02:39:47.219Z,4.47
2023-08-12T02:41:49.088Z,3.67
2023-08-12T02:43:50.844Z,3.70
2023-08-12T02:45:52.850Z,3.53
2023-08-12T02:47:54.865Z,3.50
2023-08-12T02:49:56.670Z,3.90
2023-08-12T02:51:58.415Z,3.30
2023-08-12T02:54:00.140Z,3.00
2023-08-12T02:56:01.834Z,5.20
2023-08-12T02:58:04.578Z,3.13
2023-08-12T03:00:06.981Z,3.33
2023-08-12T03:02:09.011Z,3.60
2023-08-12T03:04:10.748Z,4.47
2023-08-12T03:06:12.631Z,3.83
2023-08-12T03:08:14.667Z,3.00
2023-08-12T03:10:16.583Z,3.20
2023-08-12T03:12:18.348Z,3.27
2023-08-12T03:14:20.098Z,3.20
2023-08-12T03:16:21.969Z,3.93
2023-08-12T03:18:23.812Z,3.70
2023-08-12T03:20:25.599Z,3.30
2023-08-12T03:22:28.986Z,3.17
2023-08-12T03:24:30.760Z,3.93
2023-08-12T03:26:32.559Z,3.93
2023-08-12T03:28:34.468Z,3.97
2023-08-12T03:30:36.252Z,3.60
2023-08-12T03:32:37.995Z,3.30
2023-08-12T03:34:39.858Z,3.60
2023-08-12T03:36:42.261Z,3.70
2023-08-12T03:38:44.212Z,3.50
2023-08-12T03:40:46.092Z,3.80
2023-08-12T03:42:47.915Z,3.90
2023-08-12T03:44:49.632Z,3.53
2023-08-12T03:46:51.386Z,3.50
2023-08-12T03:48:53.232Z,3.00
2023-08-12T03:50:55.007Z,3.57
2023-08-12T03:52:56.687Z,3.40
2023-08-12T03:54:58.545Z,3.33
2023-08-12T03:57:00.270Z,3.17
2023-08-12T03:59:02.085Z,3.20
2023-08-12T04:01:03.879Z,3.20
2023-08-12T04:03:05.828Z,3.77
2023-08-12T04:05:08.274Z,3.60
2023-08-12T04:07:10.116Z,3.50
2023-08-12T04:09:12.128Z,3.13
2023-08-12T04:11:13.950Z,3.40
2023-08-12T04:13:16.213Z,3.40
2023-08-12T04:15:17.940Z,3.10
2023-08-12T04:17:19.925Z,3.60
2023-08-12T04:19:21.879Z,3.63
2023-08-12T04:21:23.631Z,3.33
2023-08-12T04:23:25.558Z,3.13
2023-08-12T04:25:27.348Z,4.80
2023-08-12T04:27:29.189Z,3.10
2023-08-12T04:29:30.925Z,3.67
2023-08-12T04:31:32.620Z,3.50
2023-08-12T04:33:34.697Z,3.47
2023-08-12T04:35:36.522Z,3.27
2023-08-12T04:37:38.376Z,2.90
2023-08-12T04:39:41.322Z,3.30
2023-08-12T04:41:43.208Z,3.90
2023-08-12T04:43:44.970Z,4.00
2023-08-12T04:45:47.975Z,3.20
2023-08-12T04:47:50.033Z,3.97
2023-08-12T04:49:51.792Z,3.63
2023-08-12T04:51:56.211Z,3.37
2023-08-12T04:53:58.291Z,3.63
2023-08-12T04:56:00.176Z,2.73
2023-08-12T04:58:03.862Z,3.30
2023-08-12T05:00:09.403Z,4.37
2023-08-12T05:02:11.126Z,4.23
2023-08-12T05:04:12.850Z,4.00
2023-08-12T05:06:14.575Z,3.87
2023-08-12T05:08:16.338Z,3.80
2023-08-12T05:10:18.916Z,3.90
2023-08-12T05:12:20.705Z,3.97
2023-08-12T05:14:22.469Z,4.03
2023-08-12T05:16:24.310Z,3.93
2023-08-12T05:18:27.448Z,4.00
2023-08-12T05:20:29.356Z,4.07
2023-08-12T05:22:31.065Z,3.50
2023-08-12T05:24:32.955Z,4.10
2023-08-12T05:26:35.245Z,4.70
2023-08-12T05:28:36.964Z,4.70
2023-08-12T05:30:39.764Z,3.70
2023-08-12T05:32:42.062Z,3.97
2023-08-12T05:34:43.858Z,4.00
2023-08-12T05:36:45.675Z,4.00
2023-08-12T05:38:47.519Z,4.20
2023-08-12T05:40:49.343Z,4.33
2023-08-12T05:42:51.108Z,4.70
2023-08-12T05:44:52.755Z,3.87
2023-08-12T05:46:54.599Z,4.17
2023-08-12T05:48:56.473Z,3.90
2023-08-12T05:50:58.249Z,3.90
2023-08-12T05:53:00.051Z,4.60
2023-08-12T05:55:01.840Z,4.30
2023-08-12T05:57:04.128Z,3.63
2023-08-12T05:59:05.889Z,4.20
2023-08-12T06:01:07.847Z,4.37
2023-08-12T06:03:09.665Z,4.40
2023-08-12T06:05:11.434Z,4.10
2023-08-12T06:07:13.324Z,4.27
2023-08-12T06:09:15.038Z,4.50
2023-08-12T06:11:16.867Z,4.70
2023-08-12T06:13:18.636Z,3.90
2023-08-12T06:15:20.480Z,3.83
2023-08-12T06:17:22.461Z,3.90
2023-08-12T06:19:24.339Z,4.87
2023-08-12T06:21:26.119Z,3.93
2023-08-12T06:23:28.016Z,4.00
2023-08-12T06:25:29.771Z,4.17
2023-08-12T06:27:31.584Z,5.20
2023-08-12T06:29:33.579Z,4.63
2023-08-12T06:31:35.337Z,4.40
2023-08-12T06:33:37.275Z,3.83
2023-08-12T06:35:40.983Z,4.77
2023-08-12T06:37:42.874Z,4.33
2023-08-12T06:39:44.630Z,4.27
2023-08-12T06:41:46.335Z,4.87
2023-08-12T06:43:48.328Z,4.40
2023-08-12T06:45:50.166Z,4.00
2023-08-12T06:47:52.000Z,3.17
2023-08-12T06:49:54.108Z,3.80
2023-08-12T06:51:55.879Z,4.40
2023-08-12T06:53:57.700Z,3.83
2023-08-12T06:55:59.450Z,4.30
2023-08-12T06:58:01.804Z,4.57
2023-08-12T07:00:04.290Z,4.40
2023-08-12T07:02:07.562Z,3.40
2023-08-12T07:04:09.276Z,3.90
2023-08-12T07:06:10.992Z,3.83
2023-08-12T07:08:12.726Z,3.50
2023-08-12T07:10:14.454Z,3.70
2023-08-12T07:12:16.200Z,3.20
2023-08-12T07:14:18.145Z,4.30
2023-08-12T07:16:20.082Z,3.90
2023-08-12T07:18:22.029Z,3.90
2023-08-12T07:20:23.736Z,3.90
2023-08-12T07:22:25.454Z,3.40
2023-08-12T07:24:27.242Z,3.33
2023-08-12T07:26:29.199Z,3.40
2023-08-12T07:28:30.928Z,3.75
2023-08-12T07:30:34.784Z,3.42
2023-08-12T07:32:38.563Z,3.10
2023-08-12T07:34:40.251Z,3.40
2023-08-12T07:36:42.316Z,3.60
2023-08-12T07:38:44.062Z,3.20
2023-08-12T07:40:45.818Z,3.65
2023-08-12T07:42:47.561Z,2.80
2023-08-12T07:44:49.534Z,3.47
2023-08-12T07:46:51.236Z,3.15
2023-08-12T07:48:53.235Z,3.03
2023-08-12T07:50:58.886Z,3.47
2023-08-12T07:53:00.681Z,2.63
2023-08-12T07:55:03.024Z,3.28
2023-08-12T07:57:04.950Z,2.78
2023-08-12T07:59:07.349Z,3.38
2023-08-12T08:01:10.451Z,3.25
2023-08-12T08:03:12.172Z,3.17
2023-08-12T08:05:13.938Z,3.30
2023-08-12T08:07:16.910Z,3.40
2023-08-12T08:09:18.678Z,3.25
2023-08-12T08:11:20.381Z,2.55
2023-08-12T08:13:22.325Z,3.45
2023-08-12T08:15:23.986Z,3.13
2023-08-12T08:17:25.786Z,2.80
2023-08-12T08:19:29.991Z,3.08
2023-08-12T08:21:32.104Z,2.83
2023-08-12T08:23:34.011Z,2.75
2023-08-12T08:25:36.025Z,3.15
2023-08-12T08:27:37.860Z,3.10
2023-08-12T08:29:39.773Z,3.55
2023-08-12T08:31:41.561Z,2.63
2023-08-12T08:33:45.254Z,2.90
2023-08-12T08:35:47.309Z,3.00
2023-08-12T08:37:49.150Z,3.28
2023-08-12T08:39:51.201Z,3.20
2023-08-12T08:41:55.328Z,3.15
2023-08-12T08:44:04.383Z,3.20
2023-08-12T08:46:07.655Z,3.10
2023-08-12T08:48:11.060Z,3.40
2023-08-12T08:50:13.997Z,3.67
2023-08-12T08:52:16.777Z,3.03
2023-08-12T08:54:19.709Z,3.72
2023-08-12T08:56:22.487Z,3.53
2023-08-12T08:58:26.044Z,3.47
2023-08-12T09:00:29.111Z,3.22
2023-08-12T09:02:31.803Z,3.15
2023-08-12T09:04:34.187Z,3.10
2023-08-12T09:06:39.055Z,3.35
2023-08-12T09:08:45.775Z,3.38
2023-08-12T09:10:48.301Z,3.58
2023-08-12T09:12:50.326Z,3.38
2023-08-12T09:14:52.098Z,3.10
2023-08-12T09:16:56.337Z,3.17
2023-08-12T09:18:59.599Z,2.63
2023-08-12T09:21:02.020Z,3.70
2023-08-12T09:23:04.417Z,2.95
2023-08-12T09:25:06.823Z,3.28
2023-08-12T09:27:08.669Z,3.38
2023-08-12T09:29:10.380Z,3.40
2023-08-12T09:31:27.646Z,3.25
2023-08-12T09:33:29.521Z,3.60
2023-08-12T09:35:36.263Z,3.38
2023-08-12T09:37:38.881Z,2.65
2023-08-12T09:39:41.404Z,3.03
2023-08-12T09:41:44.316Z,3.05
2023-08-12T09:43:46.066Z,2.90
2023-08-12T09:45:48.282Z,2.53
2023-08-12T09:47:50.289Z,2.85
2023-08-12T09:49:52.168Z,3.00
2023-08-12T09:51:54.258Z,3.42
2023-08-12T09:53:56.724Z,3.05
2023-08-12T09:56:08.924Z,2.50
2023-08-12T09:58:11.888Z,3.40
2023-08-12T10:00:18.444Z,2.50
2023-08-12T10:02:21.431Z,2.83
2023-08-12T10:04:25.576Z,2.95
2023-08-12T10:06:28.191Z,3.42
2023-08-12T10:08:30.549Z,2.83
2023-08-12T10:10:36.340Z,3.58
2023-08-12T10:12:38.509Z,2.78
2023-08-12T10:14:40.703Z,3.22
2023-08-12T10:16:47.536Z,2.60
2023-08-12T10:18:51.037Z,3.05
2023-08-12T10:20:53.661Z,2.50
2023-08-12T10:22:56.494Z,3.08
2023-08-12T10:25:03.396Z,2.95
2023-08-12T10:27:06.137Z,2.85
2023-08-12T10:29:08.699Z,2.63
2023-08-12T10:31:13.255Z,3.28
2023-08-12T10:33:18.587Z,2.78
2023-08-12T10:35:20.488Z,3.15
2023-08-12T10:37:23.253Z,2.83
2023-08-12T10:39:29.852Z,2.80
2023-08-12T10:41:37.070Z,3.28
2023-08-12T10:43:55.480Z,3.35
2023-08-12T10:45:58.525Z,3.28
2023-08-12T10:48:00.642Z,2.67
2023-08-12T10:50:03.167Z,3.63
2023-08-12T10:52:05.036Z,3.00
2023-08-12T10:54:32.207Z,3.20
2023-08-12T10:57:02.736Z,3.22
2023-08-12T10:59:04.599Z,2.78
2023-08-12T11:01:14.214Z,3.67
2023-08-12T11:03:16.149Z,2.92
2023-08-12T11:05:20.198Z,2.42
2023-08-12T11:07:27.971Z,2.88
2023-08-12T11:09:29.828Z,3.00
2023-08-12T11:11:31.602Z,3.00
2023-08-12T11:13:33.299Z,2.90
2023-08-12T11:15:39.711Z,3.20
2023-08-12T11:17:42.718Z,2.97
2023-08-12T11:19:44.664Z,2.92
2023-08-12T11:21:46.965Z,2.78
2023-08-12T11:23:48.765Z,3.22
2023-08-12T11:25:51.350Z,2.50
2023-08-12T11:27:53.413Z,3.38
2023-08-12T11:29:55.231Z,2.70
2023-08-12T11:31:56.924Z,3.05
2023-08-12T11:33:59.299Z,2.75
2023-08-12T11:36:01.763Z,2.30
2023-08-12T11:38:03.668Z,2.70
2023-08-12T11:40:07.246Z,2.50
2023-08-12T11:42:09.042Z,2.75
2023-08-12T11:44:17.096Z,2.50
2023-08-12T11:46:18.886Z,2.53
2023-08-12T11:48:21.843Z,2.45
2023-08-12T11:50:28.300Z,2.88
2023-08-12T11:52:30.523Z,2.92
2023-08-12T11:54:32.467Z,2.35
2023-08-12T11:56:34.555Z,2.72
2023-08-12T11:58:51.674Z,2.50
2023-08-12T12:00:55.326Z,2.40
2023-08-12T12:02:57.953Z,2.33
2023-08-12T12:04:59.784Z,2.22
2023-08-12T12:07:07.173Z,2.15
2023-08-12T12:09:13.785Z,2.50
2023-08-12T12:11:15.623Z,2.47
2023-08-12T12:13:18.869Z,2.40
2023-08-12T12:15:20.558Z,2.63
2023-08-12T12:17:25.866Z,2.88
2023-08-12T12:19:28.487Z,2.65
2023-08-12T12:21:30.173Z,2.83
2023-08-12T12:23:32.375Z,2.83
2023-08-12T12:25:35.313Z,3.95
2023-08-12T12:27:39.688Z,2.67
2023-08-12T12:29:41.779Z,2.42
2023-08-12T12:31:43.792Z,2.60
2023-08-12T12:33:45.513Z,3.22
2023-08-12T12:35:56.620Z,3.00
2023-08-12T12:38:00.894Z,2.90
2023-08-12T12:40:04.266Z,4.47
2023-08-12T12:42:06.225Z,3.80
2023-08-12T12:44:08.029Z,4.40
2023-08-12T12:46:09.888Z,4.70
2023-08-12T12:48:11.965Z,4.10
2023-08-12T12:50:13.833Z,4.87
2023-08-12T12:52:15.772Z,4.23
2023-08-12T12:54:18.449Z,3.80
2023-08-12T12:56:20.184Z,4.33
2023-08-12T12:58:24.383Z,4.23
2023-08-12T13:00:26.109Z,4.03
2023-08-12T13:02:27.985Z,3.93
2023-08-12T13:04:29.784Z,3.93
2023-08-12T13:06:31.564Z,3.57
2023-08-12T13:08:33.572Z,4.17
2023-08-12T13:10:35.363Z,4.33
2023-08-12T13:12:37.040Z,3.47
2023-08-12T13:14:38.786Z,4.37
2023-08-12T13:16:40.561Z,3.40
2023-08-12T13:18:42.315Z,4.60
2023-08-12T13:20:44.267Z,4.23
2023-08-12T13:22:46.027Z,4.73
2023-08-12T13:24:47.688Z,4.20
2023-08-12T13:26:49.624Z,3.77
2023-08-12T13:28:51.349Z,4.20
2023-08-12T13:30:53.223Z,5.07
2023-08-12T13:32:55.655Z,5.00
2023-08-12T13:34:57.344Z,4.87
2023-08-12T13:36:59.025Z,4.60
2023-08-12T13:39:01.476Z,4.50
2023-08-12T13:41:03.271Z,4.07
2023-08-12T13:43:05.128Z,4.20
2023-08-12T13:45:07.231Z,5.80
2023-08-12T13:47:08.866Z,4.87
2023-08-12T13:49:10.627Z,5.07
2023-08-12T13:51:12.469Z,4.67
2023-08-12T13:53:14.180Z,5.00
2023-08-12T13:55:15.923Z,4.43
2023-08-12T13:57:17.637Z,4.60
2023-08-12T13:59:19.415Z,3.80
2023-08-12T14:01:21.165Z,4.70
2023-08-12T14:03:22.972Z,4.50
2023-08-12T14:05:25.233Z,4.20
2023-08-12T14:07:27.166Z,4.30
2023-08-12T14:09:29.192Z,3.97
2023-08-12T14:11:30.973Z,3.90
2023-08-12T14:13:32.765Z,3.90
2023-08-12T14:15:34.584Z,4.20
2023-08-12T14:17:36.451Z,3.90
2023-08-12T14:19:38.200Z,3.03
2023-08-12T14:21:39.870Z,3.30
2023-08-12T14:23:41.635Z,3.70
2023-08-12T14:25:43.555Z,2.55
2023-08-12T14:27:45.399Z,2.83
2023-08-12T14:29:47.670Z,2.80
2023-08-12T14:31:49.608Z,3.05
2023-08-12T14:33:51.613Z,2.63
2023-08-12T14:35:55.446Z,2.80
2023-08-12T14:37:57.225Z,2.72
2023-08-12T14:39:58.957Z,3.00
2023-08-12T14:42:00.756Z,3.03
2023-08-12T14:44:02.932Z,2.42
2023-08-12T14:46:04.833Z,2.65
2023-08-12T14:48:07.132Z,3.10
2023-08-12T14:50:09.786Z,2.65
2023-08-12T14:52:19.257Z,3.08
2023-08-12T14:54:20.972Z,2.60
2023-08-12T14:56:23.201Z,2.85
2023-08-12T14:58:24.935Z,2.33
2023-08-12T15:00:26.674Z,2.80
2023-08-12T15:02:29.416Z,3.28
2023-08-12T15:04:34.403Z,2.80
2023-08-12T15:06:36.095Z,2.58
2023-08-12T15:08:37.803Z,2.45
2023-08-12T15:10:39.566Z,2.58
2023-08-12T15:12:41.454Z,2.00
2023-08-12T15:14:43.304Z,2.22
2023-08-12T15:16:45.042Z,2.72
2023-08-12T15:18:46.781Z,2.30
2023-08-12T15:20:48.555Z,2.28
2023-08-12T15:22:50.819Z,2.53
2023-08-12T15:24:54.023Z,2.88
2023-08-12T15:26:55.960Z,2.40
2023-08-12T15:28:57.688Z,2.38
2023-08-12T15:30:59.498Z,2.53
2023-08-12T15:33:01.269Z,2.47
2023-08-12T15:35:03.278Z,2.65
2023-08-12T15:37:05.025Z,2.75
2023-08-12T15:39:06.730Z,2.05
2023-08-12T15:41:14.537Z,2.50
2023-08-12T15:43:16.233Z,2.40
2023-08-12T15:45:18.106Z,2.55
2023-08-12T15:47:19.847Z,2.53
2023-08-12T15:49:21.768Z,2.88
2023-08-12T15:51:23.566Z,2.63
2023-08-12T15:53:25.389Z,2.78
2023-08-12T15:55:27.114Z,3.40
2023-08-12T15:57:28.846Z,2.65
2023-08-12T15:59:30.726Z,3.00
2023-08-12T16:01:33.327Z,3.10
2023-08-12T16:03:35.234Z,2.87
2023-08-12T16:05:37.326Z,2.80
2023-08-12T16:07:39.105Z,3.10
2023-08-12T16:09:40.867Z,3.10
2023-08-12T16:11:42.646Z,3.10
2023-08-12T16:13:44.874Z,2.93
2023-08-12T16:15:46.766Z,2.80
2023-08-12T16:17:48.685Z,2.90
2023-08-12T16:19:50.629Z,3.30
2023-08-12T16:21:52.449Z,2.77
2023-08-12T16:23:54.134Z,2.80
2023-08-12T16:25:55.804Z,2.90
2023-08-12T16:27:57.765Z,3.17
2023-08-12T16:29:59.447Z,3.80
2023-08-12T16:32:01.214Z,3.10
2023-08-12T16:34:03.226Z,3.27
2023-08-12T16:36:05.206Z,3.50
2023-08-12T16:38:07.023Z,3.50
2023-08-12T16:40:09.972Z,4.20
2023-08-12T16:42:13.003Z,3.80
2023-08-12T16:44:14.915Z,3.90
2023-08-12T16:46:16.728Z,4.27
2023-08-12T16:48:19.347Z,3.70
2023-08-12T16:50:21.277Z,4.97
2023-08-12T16:52:22.965Z,4.60
2023-08-12T16:54:24.661Z,5.20
2023-08-12T16:56:26.395Z,4.77
2023-08-12T16:58:28.195Z,5.43
2023-08-12T17:00:29.838Z,5.83
2023-08-12T17:02:31.886Z,5.23
2023-08-12T17:04:33.628Z,6.23
2023-08-12T17:06:35.358Z,7.50
2023-08-12T17:08:37.065Z,6.67
2023-08-12T17:10:39.742Z,6.30
2023-08-12T17:12:41.650Z,5.83
2023-08-12T17:14:43.419Z,5.97
2023-08-12T17:16:45.305Z,5.70
2023-08-12T17:18:47.086Z,5.60
2023-08-12T17:20:48.888Z,6.07
2023-08-12T17:22:50.596Z,6.93
2023-08-12T17:24:52.330Z,6.83
2023-08-12T17:26:54.062Z,6.73
2023-08-12T17:28:55.896Z,6.37
2023-08-12T17:30:57.797Z,6.67
2023-08-12T17:32:59.484Z,5.60
2023-08-12T17:35:01.475Z,5.47
2023-08-12T17:37:04.008Z,5.83
2023-08-12T17:39:05.875Z,7.17
2023-08-12T17:41:07.691Z,6.17
2023-08-12T17:43:09.607Z,6.33
2023-08-12T17:45:11.516Z,5.83
2023-08-12T17:47:13.646Z,6.23
2023-08-12T17:49:15.854Z,6.30
2023-08-12T17:51:18.364Z,5.00
2023-08-12T17:53:20.314Z,5.50
2023-08-12T17:55:22.270Z,4.93
2023-08-12T17:57:23.977Z,4.60
2023-08-12T17:59:25.772Z,4.20
2023-08-12T18:01:27.880Z,4.87
2023-08-12T18:03:29.714Z,4.87
2023-08-12T18:05:31.599Z,5.07
2023-08-12T18:07:33.328Z,6.20
2023-08-12T18:09:35.100Z,7.23
2023-08-12T18:11:36.861Z,7.47
2023-08-12T18:13:38.769Z,8.37
2023-08-12T18:15:40.706Z,9.27
2023-08-12T18:17:42.488Z,9.13
2023-08-12T18:19:44.236Z,10.40
2023-08-12T18:21:45.959Z,9.73
2023-08-12T18:23:47.972Z,11.10
2023-08-12T18:25:49.813Z,11.17
2023-08-12T18:27:51.752Z,9.60
2023-08-12T18:29:53.607Z,9.70
2023-08-12T18:31:55.325Z,12.07
2023-08-12T18:33:57.053Z,11.00
2023-08-12T18:35:58.801Z,9.90
2023-08-12T18:38:00.651Z,9.90
2023-08-12T18:40:02.426Z,10.00
2023-08-12T18:42:04.324Z,9.10
2023-08-12T18:44:06.122Z,9.57
2023-08-12T18:46:07.922Z,10.90
2023-08-12T18:48:09.811Z,10.80
2023-08-12T18:50:11.712Z,9.70
2023-08-12T18:52:15.005Z,10.10
2023-08-12T18:54:16.992Z,9.27
2023-08-12T18:56:18.709Z,8.77
2023-08-12T18:58:20.396Z,8.63
2023-08-12T19:00:22.386Z,9.07
2023-08-12T19:02:24.143Z,9.40
2023-08-12T19:04:26.804Z,8.87
2023-08-12T19:06:28.508Z,9.03
2023-08-12T19:08:30.274Z,8.90
2023-08-12T19:10:32.050Z,9.13
2023-08-12T19:12:33.895Z,8.90
2023-08-12T19:14:35.634Z,10.43
2023-08-12T19:16:37.524Z,8.23
2023-08-12T19:18:39.201Z,9.23
2023-08-12T19:20:41.310Z,9.53
2023-08-12T19:22:43.115Z,9.10
2023-08-12T19:24:44.785Z,9.70
2023-08-12T19:26:46.473Z,10.30
2023-08-12T19:28:48.186Z,9.90
2023-08-12T19:30:50.787Z,11.27
2023-08-12T19:32:54.124Z,14.60
2023-08-12T19:34:55.921Z,12.93
2023-08-12T19:36:57.719Z,12.87
2023-08-12T19:38:59.539Z,16.13
2023-08-12T19:41:03.920Z,16.87
2023-08-12T19:43:05.703Z,21.83
2023-08-12T19:45:08.056Z,16.20
2023-08-12T19:47:09.765Z,19.50
2023-08-12T19:49:11.613Z,16.77
2023-08-12T19:51:13.290Z,16.90
2023-08-12T19:53:15.048Z,20.77
2023-08-12T19:55:17.163Z,19.30
2023-08-12T19:57:18.878Z,19.90
2023-08-12T19:59:20.567Z,20.30
2023-08-12T20:01:22.259Z,19.47
2023-08-12T20:03:24.443Z,18.10
2023-08-12T20:05:28.587Z,18.87
2023-08-12T20:07:30.260Z,20.60
2023-08-12T20:09:31.969Z,19.77
2023-08-12T20:11:33.804Z,19.13
2023-08-12T20:13:35.725Z,16.83
2023-08-12T20:15:37.524Z,18.17
2023-08-12T20:17:40.163Z,18.03
2023-08-12T20:19:41.971Z,17.90
2023-08-12T20:21:43.738Z,18.20
2023-08-12T20:23:45.589Z,19.07
2023-08-12T20:25:47.401Z,18.30
2023-08-12T20:27:49.089Z,18.07
2023-08-12T20:29:50.769Z,19.23
2023-08-12T20:31:52.462Z,16.53
2023-08-12T20:33:54.201Z,18.10
2023-08-12T20:35:55.960Z,18.30
2023-08-12T20:37:57.736Z,23.07
2023-08-12T20:39:59.486Z,19.57
2023-08-12T20:42:01.264Z,25.93
2023-08-12T20:44:03.638Z,28.27
2023-08-12T20:46:06.226Z,20.47
2023-08-12T20:48:09.110Z,19.60
2023-08-12T20:50:11.078Z,15.40
2023-08-12T20:52:15.180Z,16.67
2023-08-12T20:54:16.952Z,14.20
2023-08-12T20:56:18.895Z,13.60
2023-08-12T20:58:20.580Z,12.33
2023-08-12T21:00:22.367Z,13.40
2023-08-12T21:02:24.328Z,10.10
2023-08-12T21:04:26.209Z,9.60
2023-08-12T21:06:27.945Z,9.57
2023-08-12T21:08:29.777Z,9.00
2023-08-12T21:10:31.797Z,7.57
2023-08-12T21:12:33.469Z,8.17
2023-08-12T21:14:35.192Z,7.40
2023-08-12T21:16:37.102Z,7.20
2023-08-12T21:18:38.972Z,7.67
2023-08-12T21:20:41.407Z,8.00
2023-08-12T21:22:45.736Z,7.67
2023-08-12T21:24:48.408Z,8.17
2023-08-12T21:26:51.278Z,7.97
2023-08-12T21:28:53.133Z,6.67
2023-08-12T21:30:55.025Z,6.90
2023-08-12T21:32:56.943Z,7.57
2023-08-12T21:34:59.012Z,8.20
2023-08-12T21:37:00.797Z,7.10
2023-08-12T21:39:05.292Z,7.10
2023-08-12T21:41:07.119Z,8.00
2023-08-12T21:43:09.015Z,7.93
2023-08-12T21:45:11.236Z,7.90
2023-08-12T21:47:12.974Z,8.93
2023-08-12T21:49:14.648Z,10.50
2023-08-12T21:51:16.333Z,9.20
2023-08-12T21:53:18.041Z,10.23
2023-08-12T21:55:19.825Z,11.20
2023-08-12T21:57:21.541Z,12.90
2023-08-12T21:59:23.315Z,12.93
2023-08-12T22:01:25.070Z,26.20
2023-08-12T22:03:26.938Z,17.53
2023-08-12T22:05:28.718Z,28.87
2023-08-12T22:07:30.584Z,18.50
2023-08-12T22:09:35.188Z,17.60
2023-08-12T22:11:36.918Z,14.80
2023-08-12T22:13:38.642Z,15.70
2023-08-12T22:15:40.484Z,14.97
2023-08-12T22:17:43.416Z,14.73
2023-08-12T22:19:48.856Z,12.07
2023-08-12T22:21:50.654Z,12.27
2023-08-12T22:23:52.915Z,11.33
2023-08-12T22:25:54.720Z,12.20
2023-08-12T22:27:58.113Z,11.77
2023-08-12T22:29:59.844Z,11.60
2023-08-12T22:32:01.504Z,11.30
2023-08-12T22:34:05.580Z,10.57
2023-08-12T22:36:09.847Z,10.77
2023-08-12T22:38:11.879Z,10.60
2023-08-12T22:40:13.698Z,11.10
2023-08-12T22:42:15.607Z,10.70
2023-08-12T22:44:17.693Z,10.93
2023-08-12T22:46:19.443Z,12.10
2023-08-12T22:48:21.202Z,11.60
2023-08-12T22:50:22.982Z,12.13
2023-08-12T22:52:24.671Z,11.30
2023-08-12T22:54:26.471Z,11.30
2023-08-12T22:56:28.181Z,10.93
2023-08-12T22:58:29.900Z,11.70
2023-08-12T23:00:31.605Z,12.50
2023-08-12T23:02:33.497Z,12.50
2023-08-12T23:04:35.287Z,13.67
2023-08-12T23:06:36.982Z,13.23
2023-08-12T23:08:38.657Z,12.47
2023-08-12T23:10:40.484Z,10.60
2023-08-12T23:12:42.380Z,12.57
2023-08-12T23:14:44.269Z,13.90
2023-08-12T23:16:46.011Z,12.47
2023-08-12T23:18:47.667Z,13.80
2023-08-12T23:20:49.322Z,14.67
2023-08-12T23:22:51.141Z,14.83
2023-08-12T23:24:52.969Z,13.00
2023-08-12T23:26:54.724Z,13.77
2023-08-12T23:28:56.446Z,12.93
2023-08-12T23:30:58.164Z,14.20
2023-08-12T23:32:59.955Z,14.43
2023-08-12T23:35:01.877Z,14.17
2023-08-12T23:37:03.706Z,15.33
2023-08-12T23:39:05.729Z,14.97
2023-08-12T23:41:07.475Z,14.53
2023-08-12T23:43:09.490Z,16.80
2023-08-12T23:45:11.955Z,16.40
2023-08-12T23:47:13.677Z,17.30
2023-08-12T23:49:15.541Z,17.00
2023-08-12T23:51:17.236Z,15.63
2023-08-12T23:53:18.960Z,14.37
2023-08-12T23:55:20.796Z,14.53
2023-08-12T23:57:22.501Z,15.13
2023-08-12T23:59:24.224Z,15.27
